Time;durP1;ratioP1;P1;durP2;ratioP2;P2;SDS_P1;SDS_P2;PMS_P1;PMS_P2;Temp;Humidity;BMP_temperature;BMP_pressure;BME280_temperature;BME280_humidity;BME280_pressure;Samples;Min_cycle;Max_cycle;Signal;HPM_P1;HPM_P2
2023/04/22 00:00:32;;;;;;;9.40;8.60;;;;;;;13.49;57.24;100455.78;5034615;28;20234;-79
2023/04/22 00:03:00;;;;;;;9.40;8.53;;;;;;;13.46;57.15;100461.97;5035230;28;20210;-82
2023/04/22 00:05:26;;;;;;;9.00;8.30;;;;;;;13.47;57.30;100458.44;5035279;28;20226;-79
2023/04/22 00:07:54;;;;;;;9.77;8.87;;;;;;;13.45;57.17;100455.00;5034945;28;20206;-79
2023/04/22 00:10:20;;;;;;;8.60;8.00;;;;;;;13.45;57.45;100460.25;5034902;28;20290;-81
2023/04/22 00:12:52;;;;;;;9.60;8.63;;;;;;;13.39;57.61;100447.31;5035597;28;20204;-78
2023/04/22 00:15:25;;;;;;;8.67;8.07;;;;;;;13.36;57.72;100431.72;5035102;28;20215;-79
2023/04/22 00:17:53;;;;;;;9.43;7.83;;;;;;;13.31;58.22;100439.69;5035371;28;20714;-81
2023/04/22 00:20:22;;;;;;;9.63;8.70;;;;;;;13.26;58.25;100427.59;5035608;28;20321;-79
2023/04/22 00:22:48;;;;;;;15.53;9.20;;;;;;;13.21;58.10;100422.50;5034789;28;20241;-79
2023/04/22 00:25:16;;;;;;;9.13;8.33;;;;;;;13.16;58.20;100411.31;5034826;28;20256;-80
2023/04/22 00:27:48;;;;;;;9.27;8.43;;;;;;;13.10;58.78;100406.22;5034712;28;20265;-81
2023/04/22 00:30:15;;;;;;;9.53;8.73;;;;;;;13.07;58.68;100398.47;5034950;28;20235;-82
2023/04/22 00:32:41;;;;;;;9.47;8.40;;;;;;;13.03;58.81;100389.84;5034139;28;20577;-79
2023/04/22 00:35:08;;;;;;;9.30;8.50;;;;;;;12.97;59.45;100386.56;5034852;28;20209;-78
2023/04/22 00:37:36;;;;;;;10.07;9.27;;;;;;;12.94;59.02;100381.38;5034335;28;20571;-81
2023/04/22 00:40:05;;;;;;;10.30;9.43;;;;;;;12.87;59.85;100372.88;5034170;28;20289;-82
2023/04/22 00:42:42;;;;;;;10.30;9.30;;;;;;;12.83;59.91;100353.75;5034141;28;20583;-79
2023/04/22 00:45:11;;;;;;;9.97;9.17;;;;;;;12.77;60.26;100346.06;5038381;28;20234;-81
2023/04/22 00:47:39;;;;;;;9.93;9.13;;;;;;;12.69;60.23;100332.34;5037896;28;20207;-81
2023/04/22 00:50:07;;;;;;;10.10;9.30;;;;;;;12.58;61.13;100335.28;5038182;28;20234;-78
2023/04/22 00:52:33;;;;;;;10.67;9.87;;;;;;;12.52;61.08;100317.97;5038078;28;20294;-79
2023/04/22 00:55:00;;;;;;;10.50;9.60;;;;;;;12.46;61.45;100312.91;5038426;28;20204;-79
2023/04/22 00:57:27;;;;;;;10.67;9.47;;;;;;;12.48;61.77;100297.16;5038077;28;20210;-82
2023/04/22 00:59:56;;;;;;;11.10;10.10;;;;;;;12.42;61.93;100294.72;5037786;28;20284;-79
2023/04/22 01:02:23;;;;;;;10.90;10.00;;;;;;;12.38;62.37;100291.34;5045828;28;20214;-79
2023/04/22 01:04:49;;;;;;;10.67;9.87;;;;;;;12.31;62.40;100277.59;5057693;28;20202;-80
2023/04/22 01:07:20;;;;;;;10.53;9.83;;;;;;;12.25;63.31;100275.16;5058124;28;20209;-80
2023/04/22 01:09:47;;;;;;;10.80;9.77;;;;;;;12.26;62.74;100266.38;5057787;28;20201;-79
2023/04/22 01:12:13;;;;;;;10.07;9.03;;;;;;;12.23;62.85;100261.25;5057763;28;20706;-81
2023/04/22 01:14:40;;;;;;;10.67;9.67;;;;;;;12.26;63.03;100255.91;5060735;28;20740;-80
2023/04/22 01:17:12;;;;;;;9.33;8.63;;;;;;;12.27;63.47;100248.94;5061047;28;20202;-81
2023/04/22 01:19:42;;;;;;;10.00;9.30;;;;;;;12.26;63.56;100245.44;5060793;28;20263;-83
2023/04/22 01:22:08;;;;;;;9.90;9.10;;;;;;;12.14;64.93;100232.72;5061343;28;20202;-81
2023/04/22 01:24:36;;;;;;;10.30;9.13;;;;;;;12.14;64.21;100221.41;5061130;28;20236;-81
2023/04/22 01:27:02;;;;;;;10.37;9.37;;;;;;;12.12;63.92;100222.28;5060004;28;20225;-81
2023/04/22 01:29:31;;;;;;;9.30;8.40;;;;;;;12.15;63.58;100223.09;5059671;28;20206;-81
2023/04/22 01:32:01;;;;;;;9.40;8.63;;;;;;;12.16;63.59;100224.81;5055298;28;20347;-81
2023/04/22 01:34:32;;;;;;;10.47;9.57;;;;;;;12.15;63.53;100244.03;5039374;28;20225;-82
2023/04/22 01:37:00;;;;;;;9.43;8.73;;;;;;;12.10;63.84;100254.63;5039411;28;20203;-81
2023/04/22 01:39:27;;;;;;;9.80;9.03;;;;;;;12.01;64.14;100249.66;5039231;28;20209;-79
2023/04/22 01:41:55;;;;;;;9.73;8.87;;;;;;;11.91;64.36;100246.44;5038633;28;20267;-80
2023/04/22 01:44:22;;;;;;;9.63;8.93;;;;;;;11.84;64.99;100227.41;5038838;28;20234;-81
2023/04/22 01:46:48;;;;;;;9.67;8.87;;;;;;;11.82;64.71;100213.53;5039336;28;20226;-79
2023/04/22 01:49:14;;;;;;;9.70;8.73;;;;;;;11.71;65.04;100208.59;5038415;28;20260;-82
2023/04/22 01:51:42;;;;;;;10.03;9.23;;;;;;;11.58;65.96;100201.97;5039137;28;20230;-80
2023/04/22 01:54:10;;;;;;;9.60;8.80;;;;;;;11.49;66.33;100197.84;5038369;28;20213;-82
2023/04/22 01:56:37;;;;;;;10.30;9.50;;;;;;;11.49;66.38;100176.06;5039201;28;20674;-79
2023/04/22 01:59:05;;;;;;;9.40;8.70;;;;;;;11.49;66.22;100163.00;5037916;28;20677;-81
2023/04/22 02:01:31;;;;;;;9.13;8.43;;;;;;;11.33;67.13;100163.41;5038963;28;20237;-82
2023/04/22 02:03:57;;;;;;;9.23;8.53;;;;;;;11.32;67.31;100147.81;5038693;28;20210;-82
2023/04/22 02:06:24;;;;;;;9.60;8.90;;;;;;;11.32;67.18;100137.34;5038601;28;20222;-80
2023/04/22 02:08:50;;;;;;;12.30;8.63;;;;;;;11.31;67.62;100133.84;5038106;28;20206;-80
2023/04/22 02:11:16;;;;;;;9.57;8.67;;;;;;;11.31;67.84;100123.41;5038352;28;20226;-81
2023/04/22 02:13:43;;;;;;;11.27;8.73;;;;;;;11.22;68.29;100121.06;5038321;28;20399;-81
2023/04/22 02:16:10;;;;;;;8.93;8.13;;;;;;;11.26;68.44;100107.00;5038024;28;20669;-82
2023/04/22 02:18:43;;;;;;;9.37;8.57;;;;;;;11.19;68.92;100099.38;5038926;28;20206;-82
2023/04/22 02:21:11;;;;;;;9.47;8.67;;;;;;;11.20;69.28;100085.41;5038680;28;20362;-81
2023/04/22 02:23:48;;;;;;;10.07;9.33;;;;;;;11.21;68.88;100074.91;5039221;28;20268;-81
2023/04/22 02:26:15;;;;;;;10.20;9.37;;;;;;;11.12;68.72;100081.25;5037798;28;20234;-80
2023/04/22 02:28:43;;;;;;;10.47;9.67;;;;;;;11.11;68.53;100086.50;5038628;28;20198;-79
2023/04/22 02:31:11;;;;;;;10.07;9.27;;;;;;;11.17;68.45;100085.50;5038509;28;20227;-81
2023/04/22 02:33:37;;;;;;;10.73;9.63;;;;;;;11.21;68.21;100092.34;5038386;28;20202;-82
2023/04/22 02:36:04;;;;;;;10.63;9.73;;;;;;;11.27;68.36;100107.84;5038801;28;20198;-79
2023/04/22 02:38:31;;;;;;;10.30;9.50;;;;;;;11.23;68.65;100112.31;5038087;28;20241;-81
2023/04/22 02:40:58;;;;;;;10.23;9.30;;;;;;;11.20;68.84;100108.91;5037711;28;20226;-82
2023/04/22 02:43:24;;;;;;;10.73;9.80;;;;;;;10.98;69.89;100099.06;5037724;28;20758;-81
2023/04/22 02:45:55;;;;;;;10.07;9.07;;;;;;;10.93;70.00;100093.09;5037801;28;20230;-80
2023/04/22 02:48:25;;;;;;;9.97;9.07;;;;;;;10.96;69.60;100094.75;5037922;28;20273;-81
2023/04/22 02:50:52;;;;;;;10.90;9.97;;;;;;;10.83;69.34;100089.84;5037993;28;20230;-82
2023/04/22 02:53:18;;;;;;;10.83;9.23;;;;;;;10.90;69.76;100090.53;5037919;28;20210;-82
2023/04/22 02:55:46;;;;;;;10.23;9.27;;;;;;;10.87;70.28;100081.03;5037616;28;20245;-81
2023/04/22 02:58:14;;;;;;;9.43;8.73;;;;;;;10.88;70.68;100063.59;5037966;28;20232;-82
2023/04/22 03:00:40;;;;;;;9.63;8.93;;;;;;;10.89;70.55;100065.34;5037990;28;20237;-82
2023/04/22 03:03:09;;;;;;;10.00;9.10;;;;;;;10.94;70.41;100060.84;5051799;28;20232;-82
2023/04/22 03:05:37;;;;;;;9.70;8.90;;;;;;;10.89;70.60;100065.34;5040928;28;20219;-81
2023/04/22 03:08:04;;;;;;;9.87;9.17;;;;;;;10.88;70.45;100061.88;5037451;28;20260;-81
2023/04/22 03:10:31;;;;;;;10.97;9.67;;;;;;;10.92;70.21;100075.69;5038206;28;20240;-82
2023/04/22 03:12:57;;;;;;;10.60;9.70;;;;;;;10.92;70.35;100075.69;5038088;28;20654;-81
2023/04/22 03:15:25;;;;;;;9.90;9.17;;;;;;;10.79;70.78;100077.78;5037701;28;20271;-81
2023/04/22 03:17:55;;;;;;;10.17;9.10;;;;;;;10.77;71.20;100066.50;5037204;28;20202;-81
2023/04/22 03:20:22;;;;;;;10.40;9.60;;;;;;;10.67;71.72;100075.47;5036810;28;20230;-82
2023/04/22 03:22:49;;;;;;;10.60;9.70;;;;;;;10.58;71.85;100058.28;5037934;28;20206;-81
2023/04/22 03:25:16;;;;;;;11.40;9.87;;;;;;;10.65;71.26;100057.25;5037162;28;20634;-81
2023/04/22 03:27:46;;;;;;;11.07;9.47;;;;;;;10.62;71.32;100056.47;5037269;28;20303;-82
2023/04/22 03:30:14;;;;;;;8.93;8.30;;;;;;;10.63;71.82;100045.13;5037351;28;20598;-82
2023/04/22 03:32:40;;;;;;;9.90;9.10;;;;;;;10.62;71.66;100052.09;5047254;28;20197;-82
2023/04/22 03:35:07;;;;;;;9.60;8.90;;;;;;;10.58;71.74;100053.06;5057199;28;20202;-82
2023/04/22 03:37:35;;;;;;;9.40;8.70;;;;;;;10.56;71.96;100051.41;5057545;28;20205;-82
2023/04/22 03:40:07;;;;;;;10.00;8.97;;;;;;;10.53;71.72;100052.34;5057353;28;20234;-82
2023/04/22 03:42:34;;;;;;;10.07;9.37;;;;;;;10.50;71.60;100053.28;5057450;28;20189;-82
2023/04/22 03:45:01;;;;;;;10.47;9.63;;;;;;;10.44;72.05;100055.16;5057201;28;20564;-82
2023/04/22 03:47:27;;;;;;;9.97;9.27;;;;;;;10.39;72.08;100044.00;5056941;28;20327;-82
2023/04/22 03:49:55;;;;;;;11.17;9.93;;;;;;;10.40;71.91;100049.16;5057112;28;20566;-82
2023/04/22 03:52:21;;;;;;;11.33;10.33;;;;;;;10.39;72.08;100051.81;5057931;28;20283;-82
2023/04/22 03:54:48;;;;;;;11.43;10.00;;;;;;;10.41;71.95;100057.88;5057384;28;20255;-82
2023/04/22 03:57:18;;;;;;;10.87;9.97;;;;;;;10.38;72.29;100053.56;5057818;28;20236;-82
2023/04/22 03:59:46;;;;;;;11.03;10.23;;;;;;;10.45;72.11;100054.28;5057671;28;20213;-83
2023/04/22 04:02:14;;;;;;;11.20;10.20;;;;;;;10.47;72.02;100055.94;5051408;28;20214;-82
2023/04/22 04:04:40;;;;;;;10.33;9.43;;;;;;;10.52;72.08;100051.50;5038663;28;20233;-82
2023/04/22 04:07:07;;;;;;;11.27;10.17;;;;;;;10.49;71.74;100053.31;5049770;28;20285;-81
2023/04/22 04:09:34;;;;;;;10.27;9.47;;;;;;;10.47;71.72;100060.31;5055354;28;20201;-80
2023/04/22 04:12:01;;;;;;;11.17;10.27;;;;;;;10.49;71.82;100062.00;5055734;28;20226;-80
2023/04/22 04:14:29;;;;;;;10.90;10.10;;;;;;;10.53;71.68;100087.13;5054781;28;20203;-79
2023/04/22 04:16:55;;;;;;;11.20;10.20;;;;;;;10.59;71.49;100091.34;5055060;28;20206;-79
2023/04/22 04:19:22;;;;;;;11.83;10.43;;;;;;;10.57;71.60;100090.50;5041040;28;20202;-79
2023/04/22 04:21:48;;;;;;;11.97;11.07;;;;;;;10.58;71.29;100097.44;5040100;28;20260;-79
2023/04/22 04:24:17;;;;;;;11.27;10.47;;;;;;;10.52;71.69;100101.06;5039681;28;20260;-81
2023/04/22 04:26:47;;;;;;;11.33;10.43;;;;;;;10.50;71.76;100091.53;5039769;28;20227;-82
2023/04/22 04:29:14;;;;;;;11.50;10.63;;;;;;;10.48;71.73;100088.97;5038889;28;20404;-82
2023/04/22 04:31:42;;;;;;;10.90;10.10;;;;;;;10.53;71.89;100094.09;5039796;28;20233;-79
2023/04/22 04:34:08;;;;;;;11.03;10.07;;;;;;;10.54;71.73;100093.19;5054113;28;20255;-80
2023/04/22 04:36:38;;;;;;;10.63;9.73;;;;;;;10.54;71.72;100093.19;5059353;28;20205;-81
2023/04/22 04:39:11;;;;;;;10.60;9.70;;;;;;;10.49;72.20;100089.84;5059463;28;20216;-82
2023/04/22 04:41:38;;;;;;;10.73;10.00;;;;;;;10.51;71.82;100083.69;5059023;28;20236;-80
2023/04/22 04:44:05;;;;;;;9.60;9.00;;;;;;;10.51;72.03;100083.69;5058898;28;20209;-79
2023/04/22 04:46:31;;;;;;;10.23;9.43;;;;;;;10.54;72.48;100077.53;5058646;28;20225;-81
2023/04/22 04:48:59;;;;;;;10.13;9.43;;;;;;;10.48;73.48;100057.66;5058644;28;20225;-80
2023/04/22 04:51:28;;;;;;;10.57;9.73;;;;;;;10.47;73.66;100037.69;5059361;28;20229;-81
2023/04/22 04:53:56;;;;;;;10.97;9.93;;;;;;;10.46;74.89;100003.78;5059368;28;20240;-81
2023/04/22 04:56:22;;;;;;;10.23;9.53;;;;;;;10.48;75.02;99986.34;5059069;28;20201;-81
2023/04/22 04:58:49;;;;;;;10.63;9.73;;;;;;;10.47;76.07;99975.06;5059198;28;20213;-82
2023/04/22 05:01:15;;;;;;;10.80;10.00;;;;;;;10.53;76.26;99951.41;5069577;23;20717;-81
2023/04/22 05:03:42;;;;;;;10.40;9.33;;;;;;;10.58;76.92;99930.41;5035775;28;20303;-81
2023/04/22 05:06:10;;;;;;;11.77;9.43;;;;;;;10.60;77.73;99910.31;5036227;28;20206;-81
2023/04/22 05:08:36;;;;;;;9.83;9.03;;;;;;;10.67;77.83;99898.84;5036712;28;20206;-82
2023/04/22 05:11:03;;;;;;;9.73;9.07;;;;;;;10.77;78.05;99891.59;5036309;28;20226;-81
2023/04/22 05:13:29;;;;;;;10.03;9.03;;;;;;;10.87;78.07;99889.59;5036851;28;20209;-82
2023/04/22 05:15:55;;;;;;;8.60;8.00;;;;;;;10.99;77.96;99888.38;5037032;28;20253;-84
2023/04/22 05:18:24;;;;;;;8.27;7.63;;;;;;;11.07;77.82;99894.22;5036243;28;20206;-81
2023/04/22 05:20:50;;;;;;;9.33;8.37;;;;;;;11.21;76.78;99901.63;5035879;28;20280;-82
2023/04/22 05:23:18;;;;;;;6.77;6.27;;;;;;;11.37;75.03;99942.06;5035895;28;20257;-80
2023/04/22 05:25:46;;;;;;;7.30;6.67;;;;;;;11.52;74.34;99983.44;5035691;28;20221;-81
2023/04/22 05:28:12;;;;;;;6.97;6.37;;;;;;;11.64;73.88;100008.34;5035211;28;20233;-80
2023/04/22 05:30:39;;;;;;;6.97;6.23;;;;;;;11.74;74.82;100027.22;5035584;28;20641;-79
2023/04/22 05:33:07;;;;;;;6.67;6.17;;;;;;;11.87;73.59;100041.66;5033458;28;20206;-82
2023/04/22 05:35:33;;;;;;;6.40;5.87;;;;;;;11.98;73.53;100066.66;5034319;28;20699;-81
2023/04/22 05:38:00;;;;;;;6.63;6.03;;;;;;;12.04;73.62;100059.47;5034078;28;20203;-82
2023/04/22 05:40:27;;;;;;;6.23;5.63;;;;;;;12.10;73.49;100063.66;5012049;28;20223;-82
2023/04/22 05:42:56;;;;;;;6.23;5.50;;;;;;;12.19;72.73;100073.84;5004017;28;20257;-83
2023/04/22 05:45:22;;;;;;;6.57;5.97;;;;;;;12.22;74.87;100073.72;5005686;28;20206;-83
2023/04/22 05:47:49;;;;;;;6.00;5.43;;;;;;;12.24;73.33;100076.28;5004797;28;20278;-83
2023/04/22 05:50:15;;;;;;;11.03;6.50;;;;;;;12.28;74.20;100089.22;5006250;28;20196;-82
2023/04/22 05:52:42;;;;;;;6.00;5.50;;;;;;;12.33;73.23;100083.88;5003447;28;20503;-82
2023/04/22 05:55:08;;;;;;;5.67;5.17;;;;;;;12.30;75.61;100063.84;5004905;28;20199;-81
2023/04/22 05:57:36;;;;;;;5.30;4.93;;;;;;;12.32;75.87;100028.03;5005080;28;20192;-82
2023/04/22 06:00:06;;;;;;;6.33;5.00;;;;;;;12.39;73.69;100059.22;5003480;28;20204;-83
2023/04/22 06:02:33;;;;;;;5.03;4.50;;;;;;;12.48;72.31;100067.63;5005885;28;20254;-82
2023/04/22 06:04:59;;;;;;;4.97;4.53;;;;;;;12.62;71.96;100127.41;5016159;28;20218;-81
2023/04/22 06:07:25;;;;;;;5.83;4.83;;;;;;;12.73;70.55;100144.56;5004790;28;20222;-81
2023/04/22 06:09:52;;;;;;;4.87;4.30;;;;;;;12.88;69.96;100188.56;5004382;28;20215;-83
2023/04/22 06:12:18;;;;;;;4.93;4.53;;;;;;;12.99;69.98;100185.63;5003180;28;20289;-83
2023/04/22 06:14:48;;;;;;;5.00;4.27;;;;;;;13.07;68.62;100225.50;5005768;28;20200;-84
2023/04/22 06:17:15;;;;;;;4.60;4.17;;;;;;;13.18;68.36;100261.84;5004718;28;20220;-82
2023/04/22 06:19:41;;;;;;;4.40;3.97;;;;;;;13.22;68.91;100248.59;5002733;28;20682;-82
2023/04/22 06:22:07;;;;;;;4.90;4.30;;;;;;;13.32;67.87;100288.53;5012721;28;20242;-80
2023/04/22 06:24:34;;;;;;;4.70;4.30;;;;;;;13.44;68.94;100295.13;5006815;28;20264;-81
2023/04/22 06:27:06;;;;;;;4.13;3.80;;;;;;;13.58;66.94;100279.78;5003729;28;20217;-81
2023/04/22 06:29:33;;;;;;;4.50;4.10;;;;;;;13.72;67.50;100323.91;5002887;28;20204;-81
2023/04/22 06:32:02;;;;;;;4.33;4.00;;;;;;;13.84;65.67;100335.75;5004229;28;20228;-80
2023/04/22 06:34:28;;;;;;;4.47;4.03;;;;;;;13.97;64.21;100367.66;5004843;28;20212;-80
2023/04/22 06:36:54;;;;;;;6.20;3.87;;;;;;;14.06;62.79;100406.72;5003145;28;20198;-81
2023/04/22 06:39:21;;;;;;;4.57;4.17;;;;;;;14.14;62.74;100430.94;5004395;28;20271;-81
2023/04/22 06:41:48;;;;;;;4.80;4.40;;;;;;;14.32;62.56;100462.75;5004339;28;20240;-80
2023/04/22 06:44:14;;;;;;;4.40;4.00;;;;;;;14.41;64.43;100442.28;5002816;28;20234;-81
2023/04/22 06:46:42;;;;;;;4.00;3.70;;;;;;;14.49;64.52;100428.88;5003851;28;20267;-81
2023/04/22 06:49:12;;;;;;;5.77;4.10;;;;;;;14.56;61.38;100438.28;5004170;28;20202;-80
2023/04/22 06:51:39;;;;;;;7.17;4.07;;;;;;;14.64;61.02;100469.53;5006545;28;20639;-82
2023/04/22 06:54:05;;;;;;;5.97;4.30;;;;;;;14.69;61.10;100499.13;5024413;28;20255;-81
2023/04/22 06:56:32;;;;;;;4.63;4.10;;;;;;;14.80;59.52;100493.50;5033660;28;20209;-82
2023/04/22 06:58:58;;;;;;;5.53;3.87;;;;;;;14.92;61.25;100515.84;5033086;28;20205;-80
2023/04/22 07:01:25;;;;;;;4.23;3.93;;;;;;;15.02;60.25;100519.84;5033087;28;20235;-78
2023/04/22 07:03:51;;;;;;;5.30;3.50;;;;;;;15.09;60.34;100529.25;5033275;28;20290;-79
2023/04/22 07:06:19;;;;;;;4.37;3.60;;;;;;;15.25;59.97;100514.63;5033043;28;20205;-79
2023/04/22 07:08:45;;;;;;;4.40;4.00;;;;;;;15.28;60.05;100553.09;5032535;28;20233;-76
2023/04/22 07:11:11;;;;;;;4.03;3.63;;;;;;;15.35;59.76;100535.31;5032799;28;20228;-79
2023/04/22 07:13:42;;;;;;;4.47;4.07;;;;;;;15.41;58.23;100578.03;5032813;28;20241;-79
2023/04/22 07:16:10;;;;;;;4.20;3.90;;;;;;;15.37;59.03;100579.06;5032853;28;20213;-79
2023/04/22 07:18:38;;;;;;;5.57;4.70;;;;;;;15.43;58.12;100584.09;5032258;28;20213;-78
2023/04/22 07:21:05;;;;;;;5.20;4.30;;;;;;;15.49;60.27;100591.75;5032001;28;20276;-78
2023/04/22 07:23:33;;;;;;;5.23;3.80;;;;;;;15.49;59.29;100541.78;5032421;28;20245;-79
2023/04/22 07:26:04;;;;;;;4.03;3.70;;;;;;;15.55;59.74;100550.38;5032521;28;20212;-79
2023/04/22 07:28:31;;;;;;;4.67;3.70;;;;;;;15.53;59.54;100534.63;5032184;28;20296;-79
2023/04/22 07:30:57;;;;;;;4.30;3.90;;;;;;;15.58;59.00;100532.69;5032131;28;20781;-78
2023/04/22 07:33:23;;;;;;;3.83;3.47;;;;;;;15.62;59.84;100515.03;5032465;28;20210;-77
2023/04/22 07:35:50;;;;;;;4.33;4.03;;;;;;;15.68;60.40;100509.50;5031990;28;20220;-76
2023/04/22 07:38:16;;;;;;;5.30;4.17;;;;;;;15.76;59.92;100506.63;5031825;28;20204;-77
2023/04/22 07:40:44;;;;;;;3.87;3.57;;;;;;;15.85;61.11;100491.28;5031730;28;20233;-76
2023/04/22 07:43:10;;;;;;;5.87;3.97;;;;;;;15.94;59.01;100469.03;5031991;28;20304;-76
2023/04/22 07:45:37;;;;;;;4.37;3.50;;;;;;;15.99;58.47;100476.72;5031936;28;20209;-76
2023/04/22 07:48:04;;;;;;;4.50;4.10;;;;;;;16.03;58.43;100523.06;5032333;28;20289;-79
2023/04/22 07:50:30;;;;;;;3.67;3.37;;;;;;;16.07;58.98;100537.81;5033310;28;20244;-79
2023/04/22 07:52:59;;;;;;;4.20;3.80;;;;;;;16.12;59.38;100530.59;5032340;28;20217;-79
2023/04/22 07:55:26;;;;;;;6.07;4.40;;;;;;;16.19;59.90;100504.88;5032922;28;20211;-79
2023/04/22 07:57:53;;;;;;;4.17;3.83;;;;;;;16.26;58.40;100504.56;5033717;28;20259;-77
2023/04/22 08:00:20;;;;;;;3.70;3.30;;;;;;;16.31;58.83;100535.13;5032453;28;20212;-79
2023/04/22 08:02:46;;;;;;;4.53;3.90;;;;;;;16.40;58.43;100503.13;5033361;28;20745;-78
2023/04/22 08:05:12;;;;;;;5.67;3.50;;;;;;;16.56;59.48;100504.19;5033563;28;20227;-78
2023/04/22 08:07:39;;;;;;;3.93;3.60;;;;;;;16.68;57.82;100527.38;5033119;28;20229;-80
2023/04/22 08:10:09;;;;;;;3.40;3.20;;;;;;;16.81;59.04;100509.28;5032860;28;20264;-79
2023/04/22 08:12:35;;;;;;;3.90;3.60;;;;;;;16.87;56.91;100522.22;5033446;28;20233;-80
2023/04/22 08:15:03;;;;;;;3.73;3.33;;;;;;;16.93;55.91;100542.19;5033460;28;20566;-79
2023/04/22 08:17:29;;;;;;;5.40;3.33;;;;;;;17.09;56.41;100595.13;5033343;28;20252;-80
2023/04/22 08:19:56;;;;;;;3.40;3.10;;;;;;;17.18;54.50;100601.75;5033393;28;20264;-79
2023/04/22 08:22:22;;;;;;;3.83;3.43;;;;;;;17.21;52.71;100649.97;5032490;28;20229;-79
2023/04/22 08:24:49;;;;;;;4.13;3.33;;;;;;;17.26;54.18;100668.22;5013706;28;20206;-79
2023/04/22 08:27:18;;;;;;;4.97;3.70;;;;;;;17.31;54.28;100700.56;4993968;28;20253;-80
2023/04/22 08:29:44;;;;;;;3.27;3.07;;;;;;;17.39;54.55;100663.28;4993952;28;20211;-79
2023/04/22 08:32:12;;;;;;;3.77;3.47;;;;;;;17.45;53.91;100670.94;4993902;28;20281;-80
2023/04/22 08:34:38;;;;;;;3.53;2.90;;;;;;;17.52;54.49;100634.56;4993738;28;20211;-80
2023/04/22 08:37:04;;;;;;;4.20;3.70;;;;;;;17.61;53.83;100660.56;5014939;28;20198;-80
2023/04/22 08:39:31;;;;;;;4.00;3.70;;;;;;;17.64;52.85;100665.69;5032558;28;20205;-81
2023/04/22 08:41:58;;;;;;;8.30;3.33;;;;;;;17.71;53.89;100675.06;5023663;28;20215;-81
2023/04/22 08:44:27;;;;;;;4.87;4.27;;;;;;;17.84;57.05;100631.38;5007263;28;20213;-80
2023/04/22 08:46:57;;;;;;;3.50;3.20;;;;;;;17.86;53.70;100586.41;5011329;28;20211;-78
2023/04/22 08:49:26;;;;;;;3.33;3.03;;;;;;;17.90;52.60;100639.91;5011260;28;20289;-79
2023/04/22 08:51:54;;;;;;;3.40;3.10;;;;;;;17.99;56.25;100657.97;5021492;28;20223;-77
2023/04/22 08:54:21;;;;;;;3.57;3.17;;;;;;;18.08;55.72;100644.34;5031007;28;20210;-81
2023/04/22 08:56:50;;;;;;;3.53;3.00;;;;;;;18.13;53.78;100599.22;5032464;28;20206;-81
2023/04/22 08:59:17;;;;;;;4.30;3.90;;;;;;;18.13;52.68;100607.16;5032565;28;20205;-81
2023/04/22 09:01:44;;;;;;;3.40;3.10;;;;;;;18.18;52.42;100645.63;5032413;28;20230;-81
2023/04/22 09:04:11;;;;;;;3.50;3.30;;;;;;;18.29;53.70;100653.03;5033983;28;20260;-79
2023/04/22 09:06:39;;;;;;;5.27;3.03;;;;;;;18.40;54.11;100620.81;5035710;28;20202;-79
2023/04/22 09:09:07;;;;;;;4.47;3.40;;;;;;;18.42;52.82;100651.53;5035464;28;20280;-78
2023/04/22 09:11:34;;;;;;;3.10;2.80;;;;;;;18.47;51.62;100656.59;5035418;28;20309;-78
2023/04/22 09:14:01;;;;;;;3.90;3.23;;;;;;;18.49;55.01;100670.59;5035088;28;20257;-79
2023/04/22 09:16:29;;;;;;;4.23;2.93;;;;;;;18.54;52.95;100644.78;5035439;28;20210;-79
2023/04/22 09:18:56;;;;;;;3.73;3.03;;;;;;;18.61;55.56;100627.72;5034415;28;20237;-78
2023/04/22 09:21:26;;;;;;;3.83;3.27;;;;;;;18.75;52.89;100599.69;5034566;28;20226;-79
2023/04/22 09:23:55;;;;;;;3.37;3.17;;;;;;;18.80;51.51;100582.69;5034872;28;20260;-78
2023/04/22 09:26:23;;;;;;;4.93;2.93;;;;;;;18.87;53.46;100617.66;5035346;28;20630;-79
2023/04/22 09:28:51;;;;;;;4.07;3.63;;;;;;;18.93;51.95;100609.41;5034929;28;20222;-79
2023/04/22 09:31:22;;;;;;;3.00;2.77;;;;;;;18.95;52.10;100609.28;5034651;28;20226;-78
2023/04/22 09:33:54;;;;;;;5.03;3.13;;;;;;;19.01;54.09;100631.03;5035260;28;20262;-79
2023/04/22 09:36:26;;;;;;;2.87;2.67;;;;;;;19.04;52.71;100598.25;5035223;28;20217;-78
2023/04/22 09:38:56;;;;;;;3.33;3.00;;;;;;;19.10;51.75;100592.63;5034887;28;20202;-79
2023/04/22 09:41:29;;;;;;;2.97;2.77;;;;;;;19.12;50.44;100608.44;5034650;28;20226;-79
2023/04/22 09:43:58;;;;;;;2.70;2.50;;;;;;;19.24;50.37;100682.75;5034698;28;20672;-79
2023/04/22 09:46:25;;;;;;;4.07;3.10;;;;;;;19.36;51.15;100664.53;5034907;28;20651;-78
2023/04/22 09:48:52;;;;;;;3.37;2.80;;;;;;;19.44;50.26;100654.38;5034323;28;20222;-78
2023/04/22 09:51:19;;;;;;;3.60;3.30;;;;;;;19.51;52.76;100678.78;5025643;28;20229;-79
2023/04/22 09:53:45;;;;;;;4.97;3.50;;;;;;;19.58;52.86;100661.59;5011388;28;20208;-79
2023/04/22 09:56:14;;;;;;;3.23;3.03;;;;;;;19.60;51.87;100638.53;5009202;28;20205;-79
2023/04/22 09:58:43;;;;;;;3.03;2.70;;;;;;;19.66;52.02;100646.16;5015493;28;20261;-79
2023/04/22 10:01:09;;;;;;;2.70;2.47;;;;;;;19.70;52.32;100633.63;5014960;28;20242;-80
2023/04/22 10:03:37;;;;;;;2.90;2.60;;;;;;;19.69;51.07;100606.28;5015918;28;20211;-78
2023/04/22 10:06:04;;;;;;;3.07;2.87;;;;;;;19.73;50.19;100639.66;5015933;28;20207;-79
2023/04/22 10:08:32;;;;;;;2.93;2.73;;;;;;;19.79;48.69;100646.41;5015227;28;20288;-79
2023/04/22 10:10:58;;;;;;;4.43;2.40;;;;;;;19.90;49.31;100704.09;5014978;28;20643;-79
2023/04/22 10:13:32;;;;;;;2.90;2.70;;;;;;;20.09;51.50;100674.81;5015164;28;20211;-79
2023/04/22 10:15:59;;;;;;;2.27;1.90;;;;;;;20.18;48.79;100661.91;5016364;28;20211;-80
2023/04/22 10:18:29;;;;;;;2.10;2.00;;;;;;;20.23;47.91;100701.41;5017772;28;20207;-80
2023/04/22 10:20:57;;;;;;;2.30;2.10;;;;;;;20.35;47.32;100668.91;5019338;28;20266;-80
2023/04/22 10:23:24;;;;;;;2.03;1.93;;;;;;;20.47;46.47;100731.00;5037317;28;20208;-80
2023/04/22 10:25:54;;;;;;;3.43;2.03;;;;;;;20.58;46.47;100752.50;5037676;28;20202;-80
2023/04/22 10:28:22;;;;;;;2.70;2.50;;;;;;;20.68;46.95;100758.19;5036777;28;20222;-79
2023/04/22 10:30:53;;;;;;;2.53;2.43;;;;;;;20.79;45.73;100789.41;5036832;28;20249;-79
2023/04/22 10:33:38;;;;;;;2.57;2.37;;;;;;;21.04;46.42;100812.75;5029492;28;20545;-80
2023/04/22 10:36:09;;;;;;;2.37;2.17;;;;;;;21.07;43.95;100851.53;5024475;28;20235;-80
2023/04/22 10:38:37;;;;;;;2.40;2.20;;;;;;;21.16;44.55;100873.13;5036240;28;20213;-81
2023/04/22 10:41:04;;;;;;;2.30;2.10;;;;;;;21.24;46.76;100824.91;5036814;28;20225;-81
2023/04/22 10:43:44;;;;;;;2.50;2.40;;;;;;;21.25;43.63;100826.63;5036560;28;20202;-82
2023/04/22 10:46:44;;;;;;;2.47;2.37;;;;;;;21.30;46.53;100844.94;5037088;28;20288;-80
2023/04/22 10:49:17;;;;;;;2.93;2.73;;;;;;;21.32;44.85;100827.97;5035854;28;20222;-80
2023/04/22 10:51:45;;;;;;;2.80;2.60;;;;;;;21.33;45.17;100773.94;5036658;28;20222;-80
2023/04/22 10:54:55;;;;;;;2.53;2.33;;;;;;;21.49;45.73;100824.38;5037350;28;20229;-80
2023/04/22 10:57:22;;;;;;;2.80;2.60;;;;;;;21.63;46.46;100810.28;5037336;28;20202;-80
2023/04/22 10:59:54;;;;;;;4.20;2.80;;;;;;;21.63;45.39;100773.09;5036649;28;20206;-80
2023/04/22 11:02:23;;;;;;;3.00;2.80;;;;;;;21.66;44.12;100796.78;5059993;22;20238;-82
2023/04/22 11:05:24;;;;;;;2.67;2.47;;;;;;;21.68;44.36;100831.25;5039440;28;20337;-82
2023/04/22 11:08:02;;;;;;;2.80;2.60;;;;;;;21.58;44.76;100831.78;5039362;28;20443;-82
2023/04/22 11:10:34;;;;;;;2.63;2.43;;;;;;;21.68;44.91;100821.47;5039741;28;20202;-82
2023/04/22 11:13:05;;;;;;;3.60;2.80;;;;;;;21.82;46.74;100788.75;5039188;28;20225;-82
2023/04/22 11:15:34;;;;;;;3.93;3.17;;;;;;;21.98;44.63;100762.97;5039208;28;20194;-82
2023/04/22 11:18:00;;;;;;;3.33;2.70;;;;;;;22.15;44.46;100774.38;5038793;28;20244;-82
2023/04/22 11:20:29;;;;;;;3.17;2.40;;;;;;;22.38;44.96;100781.78;5038980;28;20229;-82
2023/04/22 11:22:57;;;;;;;3.07;2.87;;;;;;;22.52;44.63;100799.53;5038514;28;20260;-82
2023/04/22 11:25:25;;;;;;;4.10;2.77;;;;;;;22.71;44.05;100780.56;5039276;28;20206;-82